Tapachula, Mexico

6:47 PM CDT on July 30, 2016 (GMT -0500)
Tapachula International | | Change Station

Elev 95 ft 14.79 °N, 92.37 °W | Updated 1 hour ago

Mostly Cloudy
Mostly Cloudy
79 °F
Feels Like 79 °F
N
6
Wind Variable Wind from NNE

Today
High -- | Low -- °F
--% Chance of Precip.
Yesterday
High -- | Low -- °F
Precip. -- in
Pressure 29.80 in
Visibility 10.0 miles
Clouds Mostly Cloudy 8000 ft
Mostly Cloudy 20000 ft
Dew Point 73 °F
Humidity 83%
Rainfall 4.65 in
Snow Depth Not available.
6:52 AM 7:39 PM
Waning Crescent, 10% visible
METAR MMTP 302243Z 03005KT 10SM BKN080 BKN200 26/23 A2980 RMK 8/066
Pressure 29.80 in
Visibility 10.0 miles
Clouds Mostly Cloudy 8000 ft
Mostly Cloudy 20000 ft
Dew Point 73 °F
Humidity 83%
Rainfall 4.65 in
Snow Depth Not available.
6:52 AM 7:39 PM
Waning Crescent, 10% visible
METAR MMTP 302243Z 03005KT 10SM BKN080 BKN200 26/23 A2980 RMK 8/066

10-Day Weather Forecast

No radar image for this location.
×

Almanac

Astronomy

Jul. 30, 2016 Rise Set
Actual Time
Civil Twilight
Nautical Twilight
Astronomical Twilight
Moon
Length of Visible Light
Length of Day
Tomorrow will be .
, % of the Moon is Illuminated

Today's Extremes

Country Highs Country Lows

Community

WunderPhotos

Upload Photos

1,928,680 photos uploaded!

WunderBlog® & News

Nearby

Air Quality

  Air Quality AQ Index Pollutant
Not available.

Snow Depth

Station Depth Elevation

Earthquake Activity

City Distance Mag. Time & Date
Minimum magnitude displayed is 2.5.

Coastal Water Temperatures

Place Temperature

Stations

Nearby Weather Stations

Station Location Temp. Windchill Dew Point Humidity Wind Precip. Elev Updated Type